Time;durP1;ratioP1;P1;durP2;ratioP2;P2;SDS_P1;SDS_P2;PMS_P1;PMS_P2;Temp;Humidity;BMP_temperature;BMP_pressure;BME280_temperature;BME280_humidity;BME280_pressure;Samples;Min_cycle;Max_cycle;Signal;HPM_P1;HPM_P2
2023/03/12 00:00:47;;;;;;;9.35;4.53;;;;;;;;;;5114424;28;20160;-74
2023/03/12 00:03:13;;;;;;;7.97;4.53;;;;;;;;;;5097535;28;20542;-74
2023/03/12 00:05:40;;;;;;;7.00;4.50;;;;;;;;;;5118060;27;20082;-74
2023/03/12 00:08:06;;;;;;;10.90;4.72;;;;;;;;;;5118234;27;20431;-74
2023/03/12 00:10:32;;;;;;;6.82;5.05;;;;;;;;;;5117985;27;20039;-74
2023/03/12 00:12:58;;;;;;;11.45;4.53;;;;;;;;;;5117677;27;20080;-74
2023/03/12 00:15:25;;;;;;;8.23;4.60;;;;;;;;;;5101164;27;20042;-74
2023/03/12 00:17:51;;;;;;;9.68;4.85;;;;;;;;;;5118251;27;20038;-74
2023/03/12 00:20:17;;;;;;;7.47;3.92;;;;;;;;;;5118422;27;20382;-74
2023/03/12 00:22:43;;;;;;;9.57;4.65;;;;;;;;;;5101163;27;20092;-75
2023/03/12 00:25:11;;;;;;;8.43;4.40;;;;;;;;;;5119080;27;20035;-74
2023/03/12 00:27:37;;;;;;;10.90;4.53;;;;;;;;;;5118538;27;20043;-74
2023/03/12 00:30:04;;;;;;;6.35;4.22;;;;;;;;;;5118819;27;20134;-69
2023/03/12 00:32:32;;;;;;;9.23;4.20;;;;;;;;;;5118149;27;20077;-70
2023/03/12 00:34:59;;;;;;;8.40;4.30;;;;;;;;;;5118341;27;20057;-69
2023/03/12 00:37:25;;;;;;;10.57;4.80;;;;;;;;;;5118498;27;20043;-69
2023/03/12 00:39:52;;;;;;;8.10;4.50;;;;;;;;;;5101545;27;20045;-69
2023/03/12 00:42:18;;;;;;;10.32;4.50;;;;;;;;;;5117786;27;20043;-69
2023/03/12 00:44:44;;;;;;;8.43;4.28;;;;;;;;;;5117815;27;20043;-69
2023/03/12 00:47:10;;;;;;;10.10;4.78;;;;;;;;;;5118051;27;20043;-70
2023/03/12 00:49:37;;;;;;;9.25;4.50;;;;;;;;;;5118313;27;20084;-69
2023/03/12 00:52:05;;;;;;;8.30;4.28;;;;;;;;;;5117707;27;20051;-70
2023/03/12 00:54:31;;;;;;;11.32;4.88;;;;;;;;;;5118314;27;20117;-70
2023/03/12 00:56:57;;;;;;;8.48;4.88;;;;;;;;;;5118199;27;20508;-70
2023/03/12 00:59:23;;;;;;;9.98;4.97;;;;;;;;;;5118123;27;20035;-70
2023/03/12 01:01:49;;;;;;;13.32;4.40;;;;;;;;;;5117892;27;20088;-70
2023/03/12 01:04:16;;;;;;;8.38;5.40;;;;;;;;;;5100731;27;20047;-70
2023/03/12 01:06:42;;;;;;;8.73;4.70;;;;;;;;;;5118133;27;20043;-70
2023/03/12 01:09:08;;;;;;;8.13;5.15;;;;;;;;;;5118057;27;20051;-70
2023/03/12 01:11:35;;;;;;;13.05;5.28;;;;;;;;;;5117305;27;20126;-70
2023/03/12 01:14:02;;;;;;;10.95;4.55;;;;;;;;;;5134641;27;20031;-70
2023/03/12 01:16:29;;;;;;;9.82;5.40;;;;;;;;;;5117377;27;20035;-70
2023/03/12 01:18:59;;;;;;;9.05;5.63;;;;;;;;;;5117596;27;20114;-70
2023/03/12 01:21:26;;;;;;;11.80;5.68;;;;;;;;;;5117672;27;20494;-75
2023/03/12 01:23:52;;;;;;;10.73;5.85;;;;;;;;;;5117610;27;20050;-76
2023/03/12 01:26:18;;;;;;;11.45;5.90;;;;;;;;;;5135585;27;20111;-75
2023/03/12 01:28:44;;;;;;;14.07;6.43;;;;;;;;;;5117838;27;20039;-70
2023/03/12 01:31:13;;;;;;;8.30;5.65;;;;;;;;;;5117320;27;20043;-70
2023/03/12 01:33:39;;;;;;;12.05;6.20;;;;;;;;;;5134461;27;20429;-70
2023/03/12 01:36:06;;;;;;;10.60;6.00;;;;;;;;;;5117228;27;20471;-70
2023/03/12 01:38:32;;;;;;;9.93;5.95;;;;;;;;;;5117376;27;20075;-71
2023/03/12 01:40:59;;;;;;;12.10;6.28;;;;;;;;;;5117438;27;20047;-70
2023/03/12 01:43:27;;;;;;;9.07;6.25;;;;;;;;;;5116984;27;20398;-70
2023/03/12 01:46:16;;;;;;;8.82;5.85;;;;;;;;;;5100097;27;20081;-71
2023/03/12 01:48:47;;;;;;;12.68;6.05;;;;;;;;;;5117633;27;20101;-70
2023/03/12 01:51:14;;;;;;;13.90;6.15;;;;;;;;;;5116643;27;20074;-70
2023/03/12 01:53:42;;;;;;;11.65;6.78;;;;;;;;;;5116665;27;20398;-70
2023/03/12 01:56:08;;;;;;;11.07;6.68;;;;;;;;;;5116875;27;20051;-70
2023/03/12 01:58:36;;;;;;;10.35;6.68;;;;;;;;;;5116904;27;20039;-70
2023/03/12 02:01:02;;;;;;;9.80;6.63;;;;;;;;;;5117009;27;20122;-75
2023/03/12 02:03:28;;;;;;;14.38;7.22;;;;;;;;;;5116595;27;20043;-75
2023/03/12 02:05:56;;;;;;;15.75;7.22;;;;;;;;;;5117030;27;20039;-75
2023/03/12 02:08:23;;;;;;;14.27;7.07;;;;;;;;;;5116941;27;20043;-75
2023/03/12 02:10:49;;;;;;;10.68;7.03;;;;;;;;;;5116758;27;20107;-75
2023/03/12 02:13:15;;;;;;;10.10;6.03;;;;;;;;;;5116558;27;20038;-75
2023/03/12 02:15:41;;;;;;;10.82;6.32;;;;;;;;;;5131576;27;20040;-75
2023/03/12 02:18:11;;;;;;;11.40;7.35;;;;;;;;;;5113757;28;20043;-75
2023/03/12 02:20:57;;;;;;;9.77;6.30;;;;;;;;;;5116226;27;20043;-75
2023/03/12 02:23:29;;;;;;;9.23;6.25;;;;;;;;;;5105341;27;20047;-76
2023/03/12 02:25:56;;;;;;;10.75;6.15;;;;;;;;;;5118677;27;20045;-75
2023/03/12 02:28:24;;;;;;;9.10;5.53;;;;;;;;;;5122739;27;20077;-75
2023/03/12 02:30:52;;;;;;;12.13;5.95;;;;;;;;;;5135729;27;20402;-70
2023/03/12 02:33:18;;;;;;;11.25;5.50;;;;;;;;;;5116560;27;20100;-70
2023/03/12 02:35:45;;;;;;;8.35;5.70;;;;;;;;;;5116179;27;20041;-70
2023/03/12 02:38:29;;;;;;;14.70;5.93;;;;;;;;;;5116162;27;20526;-70
2023/03/12 02:40:57;;;;;;;10.43;5.80;;;;;;;;;;5116671;27;20144;-70
2023/03/12 02:43:23;;;;;;;9.07;5.55;;;;;;;;;;5116506;27;20134;-70
2023/03/12 02:45:50;;;;;;;9.23;5.70;;;;;;;;;;5115822;27;20046;-70
2023/03/12 02:48:16;;;;;;;8.43;5.53;;;;;;;;;;5116117;27;20043;-70
2023/03/12 02:50:42;;;;;;;8.65;5.55;;;;;;;;;;5115863;27;20364;-70
2023/03/12 02:53:08;;;;;;;17.88;6.25;;;;;;;;;;5115315;27;20087;-70
2023/03/12 02:55:34;;;;;;;17.75;7.18;;;;;;;;;;5116076;27;20035;-70
2023/03/12 02:58:00;;;;;;;8.55;5.47;;;;;;;;;;5116172;27;20031;-70
2023/03/12 03:00:26;;;;;;;9.13;5.43;;;;;;;;;;5116336;28;20046;-70
2023/03/12 03:02:52;;;;;;;11.73;6.40;;;;;;;;;;5115808;27;20046;-70
2023/03/12 03:05:19;;;;;;;11.77;6.07;;;;;;;;;;5115655;27;20042;-70
2023/03/12 03:07:45;;;;;;;11.73;6.00;;;;;;;;;;5131545;27;20049;-70
2023/03/12 03:10:11;;;;;;;11.63;6.05;;;;;;;;;;5132078;27;20043;-70
2023/03/12 03:12:37;;;;;;;12.60;6.22;;;;;;;;;;5133828;28;20431;-70
2023/03/12 03:15:03;;;;;;;13.32;6.60;;;;;;;;;;5115786;28;20378;-70
2023/03/12 03:17:30;;;;;;;12.38;6.18;;;;;;;;;;5115706;28;20080;-70
2023/03/12 03:19:56;;;;;;;12.45;6.35;;;;;;;;;;5132889;28;20092;-70
2023/03/12 03:22:22;;;;;;;11.18;5.43;;;;;;;;;;5132413;28;20035;-70
2023/03/12 03:24:48;;;;;;;10.20;5.60;;;;;;;;;;5115651;27;20035;-70
2023/03/12 03:27:15;;;;;;;12.55;5.60;;;;;;;;;;5115914;28;20038;-70
2023/03/12 03:29:41;;;;;;;13.38;5.50;;;;;;;;;;5115683;28;20047;-70
2023/03/12 03:32:07;;;;;;;11.82;6.15;;;;;;;;;;5115454;28;20050;-69
2023/03/12 03:34:33;;;;;;;11.63;6.07;;;;;;;;;;5115306;28;20028;-70
2023/03/12 03:36:59;;;;;;;11.13;6.10;;;;;;;;;;5098837;28;20073;-69
2023/03/12 03:39:27;;;;;;;10.13;5.05;;;;;;;;;;5117295;27;20035;-70
2023/03/12 03:41:53;;;;;;;10.68;5.50;;;;;;;;;;5119435;27;20047;-69
2023/03/12 03:44:21;;;;;;;9.15;5.43;;;;;;;;;;5102526;27;20478;-69
2023/03/12 03:46:48;;;;;;;11.75;5.55;;;;;;;;;;5102405;27;20043;-70
2023/03/12 03:49:15;;;;;;;10.60;5.75;;;;;;;;;;5102324;27;20052;-70
2023/03/12 03:51:42;;;;;;;15.15;5.68;;;;;;;;;;5119197;27;20414;-70
2023/03/12 03:54:11;;;;;;;9.25;5.70;;;;;;;;;;5119072;27;20048;-70
2023/03/12 03:56:37;;;;;;;8.20;5.45;;;;;;;;;;5119497;27;20092;-69
2023/03/12 03:59:03;;;;;;;11.38;6.25;;;;;;;;;;5119189;27;20042;-70
2023/03/12 04:01:30;;;;;;;9.35;5.65;;;;;;;;;;5136724;27;20387;-70
2023/03/12 04:03:56;;;;;;;12.80;6.05;;;;;;;;;;5137701;27;20095;-69
2023/03/12 04:06:22;;;;;;;8.48;5.82;;;;;;;;;;5119115;27;20039;-70
2023/03/12 04:08:48;;;;;;;13.15;6.30;;;;;;;;;;5119174;27;20494;-69
2023/03/12 04:11:16;;;;;;;10.30;5.50;;;;;;;;;;5137661;27;20523;-69
2023/03/12 04:13:43;;;;;;;10.90;6.25;;;;;;;;;;5102052;27;20519;-70
2023/03/12 04:16:10;;;;;;;18.35;7.28;;;;;;;;;;5119168;27;20379;-75
2023/03/12 04:18:36;;;;;;;11.65;6.25;;;;;;;;;;5119019;27;20035;-75
2023/03/12 04:21:03;;;;;;;9.70;5.70;;;;;;;;;;5118788;27;20039;-75
2023/03/12 04:23:29;;;;;;;13.13;6.13;;;;;;;;;;5118582;27;20035;-75
2023/03/12 04:25:56;;;;;;;10.20;5.82;;;;;;;;;;5119092;27;20108;-75
2023/03/12 04:28:22;;;;;;;12.93;6.18;;;;;;;;;;5118623;27;20035;-75
2023/03/12 04:30:58;;;;;;;12.80;6.20;;;;;;;;;;5118487;27;20043;-75
2023/03/12 04:33:25;;;;;;;12.15;5.97;;;;;;;;;;5118528;27;20043;-75
2023/03/12 04:35:52;;;;;;;10.05;6.22;;;;;;;;;;5118465;27;20039;-75
2023/03/12 04:38:18;;;;;;;12.90;6.40;;;;;;;;;;5101322;27;20054;-75
2023/03/12 04:40:44;;;;;;;12.07;6.53;;;;;;;;;;5118378;27;20043;-75
2023/03/12 04:43:11;;;;;;;11.70;5.60;;;;;;;;;;5101791;27;20364;-75
2023/03/12 04:45:38;;;;;;;13.15;6.22;;;;;;;;;;5118573;27;20039;-75
2023/03/12 04:48:05;;;;;;;11.20;6.25;;;;;;;;;;5118417;27;20067;-75
2023/03/12 04:50:31;;;;;;;13.90;5.95;;;;;;;;;;5134336;27;20043;-75
2023/03/12 04:52:57;;;;;;;12.43;6.07;;;;;;;;;;5102557;28;20048;-75
2023/03/12 04:55:23;;;;;;;9.13;6.10;;;;;;;;;;5077219;28;20039;-75
2023/03/12 04:57:49;;;;;;;9.90;5.68;;;;;;;;;;5094557;28;20043;-74
2023/03/12 05:00:16;;;;;;;12.10;6.38;;;;;;;;;;5094491;28;20039;-75
2023/03/12 05:02:42;;;;;;;9.95;5.85;;;;;;;;;;5077963;28;20499;-75
2023/03/12 05:05:10;;;;;;;12.45;5.78;;;;;;;;;;5093986;28;20044;-75
2023/03/12 05:07:36;;;;;;;11.02;5.93;;;;;;;;;;5094522;28;20047;-75
2023/03/12 05:10:03;;;;;;;9.63;5.65;;;;;;;;;;5093926;28;20048;-75
2023/03/12 05:12:29;;;;;;;13.20;6.30;;;;;;;;;;5094553;28;20044;-75
2023/03/12 05:14:55;;;;;;;13.63;6.45;;;;;;;;;;5094346;28;20040;-72
2023/03/12 05:17:21;;;;;;;12.18;6.20;;;;;;;;;;5093523;28;20036;-72
2023/03/12 05:19:47;;;;;;;15.85;6.63;;;;;;;;;;5077607;28;20114;-75
2023/03/12 05:22:13;;;;;;;12.02;6.30;;;;;;;;;;5094329;28;20044;-74
2023/03/12 05:24:39;;;;;;;10.43;5.90;;;;;;;;;;5094079;28;20040;-75
2023/03/12 05:27:07;;;;;;;8.45;5.85;;;;;;;;;;5077230;28;20045;-75
2023/03/12 05:29:34;;;;;;;15.88;6.45;;;;;;;;;;5094436;28;20118;-75
2023/03/12 05:32:03;;;;;;;15.75;6.93;;;;;;;;;;5077124;28;20062;-75
2023/03/12 05:34:30;;;;;;;13.75;5.90;;;;;;;;;;5094313;28;20428;-75
2023/03/12 05:36:57;;;;;;;13.95;6.72;;;;;;;;;;5094846;28;20476;-75
2023/03/12 05:39:23;;;;;;;11.80;6.30;;;;;;;;;;5077376;28;20118;-70
2023/03/12 05:41:49;;;;;;;10.77;6.68;;;;;;;;;;5093452;28;20373;-70
2023/03/12 05:44:16;;;;;;;12.27;7.00;;;;;;;;;;5093322;28;20047;-69
2023/03/12 05:46:42;;;;;;;9.52;6.35;;;;;;;;;;5093315;28;20051;-69
2023/03/12 05:49:09;;;;;;;12.55;6.57;;;;;;;;;;5077189;28;20066;-69
2023/03/12 05:51:35;;;;;;;15.23;7.20;;;;;;;;;;5092940;28;20409;-70
2023/03/12 05:54:02;;;;;;;11.25;6.40;;;;;;;;;;5093154;28;20059;-69
2023/03/12 05:56:28;;;;;;;12.65;6.60;;;;;;;;;;5076173;28;20113;-70
2023/03/12 05:58:54;;;;;;;13.98;6.35;;;;;;;;;;5076495;28;20047;-70
2023/03/12 06:01:22;;;;;;;14.02;6.95;;;;;;;;;;5092586;28;20085;-70
2023/03/12 06:03:49;;;;;;;15.75;7.18;;;;;;;;;;5093067;28;20476;-69
2023/03/12 06:06:15;;;;;;;10.05;6.57;;;;;;;;;;5092642;28;20507;-70
2023/03/12 06:08:42;;;;;;;11.00;6.40;;;;;;;;;;5092987;28;20389;-70
2023/03/12 06:11:08;;;;;;;9.75;6.53;;;;;;;;;;5092633;28;20047;-69
2023/03/12 06:13:34;;;;;;;14.75;6.95;;;;;;;;;;5065862;28;20502;-69
2023/03/12 06:16:05;;;;;;;12.88;7.13;;;;;;;;;;5092526;28;20476;-69
2023/03/12 06:18:34;;;;;;;14.68;6.40;;;;;;;;;;5092661;28;20036;-69
2023/03/12 06:21:08;;;;;;;14.57;6.72;;;;;;;;;;5092487;28;20036;-69
2023/03/12 06:23:34;;;;;;;10.05;6.50;;;;;;;;;;5093053;28;20427;-69
2023/03/12 06:26:00;;;;;;;10.00;7.00;;;;;;;;;;5092450;28;20040;-70
2023/03/12 06:28:26;;;;;;;17.48;6.75;;;;;;;;;;5074322;28;20044;-69
2023/03/12 06:30:53;;;;;;;15.02;6.82;;;;;;;;;;5092525;28;20044;-69
2023/03/12 06:33:19;;;;;;;11.85;7.07;;;;;;;;;;5092476;28;20051;-69
2023/03/12 06:35:45;;;;;;;12.45;6.80;;;;;;;;;;5109591;28;20070;-70
2023/03/12 06:38:11;;;;;;;10.88;7.30;;;;;;;;;;5092112;28;20032;-69
2023/03/12 06:40:37;;;;;;;13.88;6.25;;;;;;;;;;5075830;28;20449;-70
2023/03/12 06:43:03;;;;;;;11.85;6.90;;;;;;;;;;5092584;28;20380;-69
2023/03/12 06:45:29;;;;;;;14.10;6.90;;;;;;;;;;5092599;28;20089;-69
2023/03/12 06:47:55;;;;;;;11.65;7.25;;;;;;;;;;5091970;28;20044;-70
2023/03/12 06:50:21;;;;;;;13.00;7.15;;;;;;;;;;5091904;28;20032;-70
2023/03/12 06:52:47;;;;;;;12.13;6.80;;;;;;;;;;5091790;28;20051;-70
2023/03/12 06:55:13;;;;;;;14.07;6.82;;;;;;;;;;5092206;28;20559;-69
2023/03/12 06:57:39;;;;;;;11.32;6.50;;;;;;;;;;5075339;28;20473;-69
2023/03/12 07:00:06;;;;;;;9.15;6.30;;;;;;;;;;5091986;28;20392;-75
2023/03/12 07:02:33;;;;;;;15.35;6.90;;;;;;;;;;5069061;28;20092;-75
2023/03/12 07:04:59;;;;;;;10.45;5.93;;;;;;;;;;5075215;28;20036;-75
2023/03/12 07:07:25;;;;;;;13.60;7.25;;;;;;;;;;5092101;28;20028;-75
2023/03/12 07:09:51;;;;;;;10.55;6.45;;;;;;;;;;5091912;28;20475;-76
2023/03/12 07:12:17;;;;;;;9.82;6.43;;;;;;;;;;5091560;28;20484;-74
2023/03/12 07:14:43;;;;;;;12.80;6.38;;;;;;;;;;5091513;28;20036;-75
2023/03/12 07:17:09;;;;;;;15.10;7.70;;;;;;;;;;5091680;28;20036;-75
2023/03/12 07:19:35;;;;;;;14.45;6.25;;;;;;;;;;5092209;28;20043;-75
2023/03/12 07:22:01;;;;;;;15.27;6.65;;;;;;;;;;5092000;28;20048;-74
2023/03/12 07:24:27;;;;;;;19.80;8.27;;;;;;;;;;5092015;28;20066;-74
2023/03/12 07:26:53;;;;;;;13.85;7.45;;;;;;;;;;5091761;28;20040;-74
2023/03/12 07:29:19;;;;;;;15.95;7.25;;;;;;;;;;5091629;28;20036;-75
2023/03/12 07:31:45;;;;;;;12.40;6.28;;;;;;;;;;5090094;28;20073;-75
2023/03/12 07:34:12;;;;;;;10.73;6.60;;;;;;;;;;5089689;28;20492;-75
2023/03/12 07:36:38;;;;;;;16.02;7.30;;;;;;;;;;5074884;28;20036;-75
2023/03/12 07:39:04;;;;;;;13.52;6.90;;;;;;;;;;5089471;28;20537;-75
2023/03/12 07:41:31;;;;;;;14.73;6.65;;;;;;;;;;5062624;28;20063;-75
2023/03/12 07:43:57;;;;;;;10.30;6.88;;;;;;;;;;5074908;28;20040;-74
2023/03/12 07:46:23;;;;;;;12.85;7.50;;;;;;;;;;5091090;28;20032;-74
2023/03/12 07:48:49;;;;;;;13.52;7.13;;;;;;;;;;5074951;28;20040;-75
2023/03/12 07:51:15;;;;;;;14.05;6.97;;;;;;;;;;5078111;28;20169;-75
2023/03/12 07:53:41;;;;;;;15.00;7.40;;;;;;;;;;5073765;28;20063;-74
2023/03/12 07:56:07;;;;;;;13.23;6.85;;;;;;;;;;5088845;28;20051;-75
2023/03/12 07:58:35;;;;;;;11.55;6.57;;;;;;;;;;5078522;28;20037;-75
2023/03/12 08:01:01;;;;;;;15.45;7.05;;;;;;;;;;5070683;28;20040;-75
2023/03/12 08:03:27;;;;;;;16.38;6.88;;;;;;;;;;5071718;28;20072;-75
2023/03/12 08:05:57;;;;;;;15.00;6.78;;;;;;;;;;5084371;28;20059;-75
2023/03/12 08:08:23;;;;;;;15.88;8.55;;;;;;;;;;5077415;28;20055;-76
2023/03/12 08:10:49;;;;;;;14.95;7.25;;;;;;;;;;5085497;28;20071;-76
2023/03/12 08:13:15;;;;;;;17.15;7.80;;;;;;;;;;5071180;28;20032;-75
2023/03/12 08:15:43;;;;;;;11.98;7.47;;;;;;;;;;5100395;28;20506;-75
2023/03/12 08:18:09;;;;;;;11.40;7.28;;;;;;;;;;5105697;27;20040;-76
2023/03/12 08:20:35;;;;;;;11.07;7.47;;;;;;;;;;5073425;28;20046;-76
2023/03/12 08:23:01;;;;;;;16.90;7.60;;;;;;;;;;5074150;28;20046;-76
2023/03/12 08:25:27;;;;;;;15.82;7.70;;;;;;;;;;5107372;28;20048;-75
2023/03/12 08:27:53;;;;;;;17.63;7.72;;;;;;;;;;5093681;28;20060;-75
2023/03/12 08:30:19;;;;;;;13.07;8.02;;;;;;;;;;5076828;28;20036;-75
2023/03/12 08:32:46;;;;;;;13.85;7.25;;;;;;;;;;5090717;28;20365;-76
2023/03/12 08:35:12;;;;;;;17.35;7.82;;;;;;;;;;5088747;28;20036;-76
2023/03/12 08:37:38;;;;;;;14.95;7.90;;;;;;;;;;5092808;28;20036;-75
2023/03/12 08:40:11;;;;;;;13.18;7.80;;;;;;;;;;5093102;28;20075;-75
2023/03/12 08:42:38;;;;;;;13.35;8.02;;;;;;;;;;5080276;28;20035;-75
2023/03/12 08:45:04;;;;;;;11.70;7.68;;;;;;;;;;5083335;28;20072;-75
2023/03/12 08:47:30;;;;;;;14.18;8.25;;;;;;;;;;5093141;28;20075;-75
2023/03/12 08:49:57;;;;;;;14.30;7.75;;;;;;;;;;5091857;28;20072;-75
2023/03/12 08:52:23;;;;;;;12.73;8.23;;;;;;;;;;5093783;28;20436;-75
2023/03/12 08:54:49;;;;;;;15.65;8.70;;;;;;;;;;5096426;28;20090;-75
2023/03/12 08:57:16;;;;;;;11.10;8.02;;;;;;;;;;5111542;28;20172;-75
2023/03/12 08:59:42;;;;;;;16.30;8.95;;;;;;;;;;5112275;28;20046;-75
2023/03/12 09:02:10;;;;;;;15.25;7.85;;;;;;;;;;5112213;28;20039;-75
2023/03/12 09:04:36;;;;;;;14.18;8.00;;;;;;;;;;5111455;28;20035;-75
2023/03/12 09:07:02;;;;;;;11.57;8.02;;;;;;;;;;5096194;28;20132;-75
2023/03/12 09:09:30;;;;;;;19.10;7.65;;;;;;;;;;5108990;28;20118;-74
2023/03/12 09:11:56;;;;;;;13.13;8.38;;;;;;;;;;5110675;28;20126;-75
2023/03/12 09:14:22;;;;;;;19.25;8.85;;;;;;;;;;5096526;28;20058;-75
2023/03/12 09:16:49;;;;;;;15.23;8.10;;;;;;;;;;5113215;28;20040;-74
2023/03/12 09:19:15;;;;;;;14.27;8.43;;;;;;;;;;5112067;28;20043;-74
2023/03/12 09:21:41;;;;;;;13.43;8.38;;;;;;;;;;5096058;28;20047;-74
2023/03/12 09:24:08;;;;;;;17.40;8.65;;;;;;;;;;5111826;28;20035;-74
2023/03/12 09:26:34;;;;;;;11.35;8.13;;;;;;;;;;5111976;28;20071;-75
2023/03/12 09:29:00;;;;;;;15.57;7.85;;;;;;;;;;5112619;27;20433;-75
2023/03/12 09:31:26;;;;;;;15.35;8.35;;;;;;;;;;5108836;28;20111;-75
2023/03/12 09:33:52;;;;;;;12.13;7.40;;;;;;;;;;5112503;27;20076;-75
2023/03/12 09:36:18;;;;;;;14.23;8.20;;;;;;;;;;5096508;28;20050;-75
2023/03/12 09:38:44;;;;;;;13.00;8.75;;;;;;;;;;5101083;28;20047;-75
2023/03/12 09:41:30;;;;;;;17.10;8.30;;;;;;;;;;5123144;27;20501;-75
2023/03/12 09:44:15;;;;;;;15.20;8.68;;;;;;;;;;5111552;28;20043;-74
2023/03/12 09:46:48;;;;;;;14.52;8.75;;;;;;;;;;5111318;28;20378;-75
2023/03/12 09:49:34;;;;;;;18.70;9.13;;;;;;;;;;5110248;27;20119;-75
2023/03/12 09:52:03;;;;;;;14.02;8.48;;;;;;;;;;5112743;27;20458;-75
2023/03/12 09:54:33;;;;;;;12.13;8.73;;;;;;;;;;5113183;27;20074;-75
2023/03/12 09:57:02;;;;;;;13.52;9.57;;;;;;;;;;5134119;27;20483;-75
2023/03/12 09:59:28;;;;;;;16.60;9.68;;;;;;;;;;5112000;27;20037;-74
2023/03/12 10:01:56;;;;;;;13.93;9.07;;;;;;;;;;5112078;27;20038;-75
2023/03/12 10:04:22;;;;;;;17.65;9.52;;;;;;;;;;5112300;27;20037;-74
2023/03/12 10:06:51;;;;;;;14.95;8.82;;;;;;;;;;5102180;27;20071;-75
2023/03/12 10:09:36;;;;;;;14.15;9.48;;;;;;;;;;5113457;27;20063;-72
2023/03/12 10:12:02;;;;;;;12.75;9.48;;;;;;;;;;5115143;27;20471;-74
2023/03/12 10:14:45;;;;;;;17.10;9.65;;;;;;;;;;5108125;27;20031;-73
2023/03/12 10:17:30;;;;;;;18.50;9.48;;;;;;;;;;5117541;27;20035;-72
2023/03/12 10:19:59;;;;;;;14.68;10.00;;;;;;;;;;5113075;27;20062;-73
2023/03/12 10:22:31;;;;;;;16.27;9.55;;;;;;;;;;5098571;27;20122;-73
2023/03/12 10:24:57;;;;;;;15.40;9.55;;;;;;;;;;5113974;27;20149;-73
2023/03/12 10:27:25;;;;;;;22.65;9.85;;;;;;;;;;5115840;27;20126;-73
2023/03/12 10:29:52;;;;;;;18.90;10.02;;;;;;;;;;5127818;27;20394;-73
2023/03/12 10:32:18;;;;;;;18.90;10.48;;;;;;;;;;5109683;28;20438;-73
2023/03/12 10:35:02;;;;;;;19.52;10.80;;;;;;;;;;5106587;27;20038;-73
2023/03/12 10:37:41;;;;;;;21.27;11.02;;;;;;;;;;5098827;27;20046;-68
2023/03/12 10:40:12;;;;;;;21.33;11.27;;;;;;;;;;5115189;27;20027;-68
2023/03/12 10:42:38;;;;;;;19.42;11.38;;;;;;;;;;5107680;28;20042;-68
2023/03/12 10:45:11;;;;;;;19.08;11.27;;;;;;;;;;5090663;27;20038;-68
2023/03/12 10:47:38;;;;;;;20.65;11.40;;;;;;;;;;5099217;28;20491;-68
2023/03/12 10:50:12;;;;;;;22.00;12.15;;;;;;;;;;5114384;27;20043;-68
2023/03/12 10:52:39;;;;;;;21.90;11.55;;;;;;;;;;5107415;28;20051;-68
2023/03/12 10:55:31;;;;;;;18.30;11.10;;;;;;;;;;5120864;27;20058;-68
2023/03/12 10:57:57;;;;;;;20.27;11.93;;;;;;;;;;5129838;27;20070;-68
2023/03/12 11:00:25;;;;;;;21.10;12.30;;;;;;;;;;5104427;28;20093;-68
2023/03/12 11:02:57;;;;;;;23.77;12.93;;;;;;;;;;5099673;28;20044;-68
2023/03/12 11:05:26;;;;;;;22.65;12.35;;;;;;;;;;5103989;27;20039;-68
2023/03/12 11:07:52;;;;;;;20.05;12.57;;;;;;;;;;5096679;27;20047;-68
2023/03/12 11:10:20;;;;;;;21.67;12.52;;;;;;;;;;5104585;28;20079;-68
2023/03/12 11:12:58;;;;;;;25.48;13.13;;;;;;;;;;5108533;28;20375;-68
2023/03/12 11:15:26;;;;;;;21.95;13.13;;;;;;;;;;5112273;27;20043;-68
2023/03/12 11:18:02;;;;;;;24.65;13.55;;;;;;;;;;5130605;27;20394;-68
2023/03/12 11:20:29;;;;;;;26.60;13.23;;;;;;;;;;5104051;28;20114;-68
2023/03/12 11:22:56;;;;;;;26.30;13.82;;;;;;;;;;5105198;28;20046;-68
2023/03/12 11:25:22;;;;;;;24.77;14.73;;;;;;;;;;5112935;27;20043;-68
2023/03/12 11:27:50;;;;;;;24.42;14.55;;;;;;;;;;5096089;28;20110;-69
2023/03/12 11:30:20;;;;;;;31.42;14.98;;;;;;;;;;5111067;28;20127;-68
2023/03/12 11:32:47;;;;;;;25.92;15.32;;;;;;;;;;5096736;28;20502;-68
2023/03/12 11:35:14;;;;;;;25.90;15.85;;;;;;;;;;5090841;27;20063;-68
2023/03/12 11:37:52;;;;;;;26.13;14.95;;;;;;;;;;5106604;28;20084;-68
2023/03/12 11:40:30;;;;;;;25.63;14.40;;;;;;;;;;5111285;28;20034;-68
2023/03/12 11:43:00;;;;;;;28.00;15.75;;;;;;;;;;5112672;27;20126;-68
2023/03/12 11:45:32;;;;;;;29.73;14.98;;;;;;;;;;5111502;28;20361;-68
2023/03/12 11:48:17;;;;;;;31.33;15.70;;;;;;;;;;5107697;28;20363;-68
2023/03/12 11:50:51;;;;;;;30.30;15.43;;;;;;;;;;5112754;28;20545;-68
2023/03/12 11:53:25;;;;;;;28.05;15.07;;;;;;;;;;5137142;27;20048;-68
2023/03/12 11:55:55;;;;;;;30.13;14.93;;;;;;;;;;5136703;27;20059;-68
2023/03/12 11:58:27;;;;;;;31.30;15.73;;;;;;;;;;5114903;28;20110;-68
2023/03/12 12:00:57;;;;;;;39.75;16.33;;;;;;;;;;5115930;27;20035;-68
2023/03/12 12:03:28;;;;;;;46.10;15.38;;;;;;;;;;5118362;27;20034;-68
2023/03/12 12:06:04;;;;;;;45.70;16.10;;;;;;;;;;5113678;27;20035;-68
2023/03/12 12:08:30;;;;;;;51.25;16.20;;;;;;;;;;5116552;27;20046;-68
2023/03/12 12:11:01;;;;;;;50.72;14.57;;;;;;;;;;5118416;27;20088;-68
2023/03/12 12:13:40;;;;;;;63.90;16.25;;;;;;;;;;5115814;27;20038;-68
2023/03/12 12:16:06;;;;;;;71.13;13.00;;;;;;;;;;5118270;27;20035;-67
2023/03/12 12:18:51;;;;;;;60.38;15.50;;;;;;;;;;5117906;27;20066;-67
2023/03/12 12:21:31;;;;;;;44.80;11.43;;;;;;;;;;5108352;27;20110;-67
2023/03/12 12:24:04;;;;;;;59.65;13.73;;;;;;;;;;5116892;27;20046;-67
2023/03/12 12:26:38;;;;;;;67.00;11.45;;;;;;;;;;5117837;27;20034;-69
2023/03/12 12:29:04;;;;;;;79.25;11.82;;;;;;;;;;5101205;27;20061;-69
2023/03/12 12:31:49;;;;;;;74.05;12.43;;;;;;;;;;5117705;27;20043;-67
2023/03/12 12:34:34;;;;;;;67.22;11.82;;;;;;;;;;5094547;27;20047;-70
2023/03/12 12:37:30;;;;;;;63.70;10.65;;;;;;;;;;5114941;27;20043;-67
2023/03/12 12:40:07;;;;;;;45.95;9.75;;;;;;;;;;5102622;27;20054;-67
2023/03/12 12:42:34;;;;;;;60.88;11.35;;;;;;;;;;5143797;27;20035;-67
2023/03/12 12:45:02;;;;;;;52.25;10.23;;;;;;;;;;5132423;27;20118;-67
2023/03/12 12:47:54;;;;;;;50.42;9.45;;;;;;;;;;5136634;27;20038;-67
2023/03/12 12:50:22;;;;;;;55.97;11.45;;;;;;;;;;5086851;27;20130;-67
2023/03/12 12:52:50;;;;;;;58.08;10.07;;;;;;;;;;5117142;27;20066;-67
2023/03/12 12:55:22;;;;;;;70.75;11.02;;;;;;;;;;5134261;27;20039;-67
2023/03/12 12:57:54;;;;;;;56.33;10.48;;;;;;;;;;5117026;27;20171;-67
2023/03/12 13:00:23;;;;;;;61.20;9.07;;;;;;;;;;5100111;27;20039;-67
2023/03/12 13:02:50;;;;;;;71.47;10.80;;;;;;;;;;5115405;27;20078;-68
2023/03/12 13:05:26;;;;;;;51.75;9.32;;;;;;;;;;5117433;27;20471;-67
2023/03/12 13:07:52;;;;;;;56.55;9.40;;;;;;;;;;5117210;27;20035;-67
2023/03/12 13:10:33;;;;;;;64.60;8.13;;;;;;;;;;5116764;27;20031;-67
2023/03/12 13:13:03;;;;;;;63.25;8.85;;;;;;;;;;5116078;27;20031;-68
2023/03/12 13:15:32;;;;;;;68.57;8.35;;;;;;;;;;5117228;27;20382;-67
2023/03/12 13:17:58;;;;;;;58.05;8.60;;;;;;;;;;5116570;27;20043;-68
2023/03/12 13:20:28;;;;;;;66.15;7.93;;;;;;;;;;5116719;27;20038;-67
2023/03/12 13:23:11;;;;;;;56.35;8.82;;;;;;;;;;5116899;27;20371;-67
2023/03/12 13:25:40;;;;;;;47.50;7.68;;;;;;;;;;5133069;27;20080;-67
2023/03/12 13:28:31;;;;;;;49.35;8.48;;;;;;;;;;5116138;27;20050;-68
2023/03/12 13:30:58;;;;;;;52.97;8.68;;;;;;;;;;5081453;27;20525;-68
2023/03/12 13:33:43;;;;;;;44.88;8.63;;;;;;;;;;5116575;27;20031;-68
2023/03/12 13:36:22;;;;;;;48.50;10.43;;;;;;;;;;5116729;27;20123;-68
2023/03/12 13:38:54;;;;;;;48.28;7.80;;;;;;;;;;5116583;27;20035;-68
2023/03/12 13:41:31;;;;;;;56.30;7.63;;;;;;;;;;5125139;27;20093;-68
2023/03/12 13:43:57;;;;;;;55.15;10.13;;;;;;;;;;5116200;27;20168;-68
2023/03/12 13:46:34;;;;;;;52.58;6.95;;;;;;;;;;5116306;27;20466;-69
2023/03/12 13:49:03;;;;;;;50.58;7.78;;;;;;;;;;5116118;27;20126;-68
2023/03/12 13:51:29;;;;;;;40.70;7.38;;;;;;;;;;5098832;27;20039;-68
2023/03/12 13:53:57;;;;;;;45.17;7.07;;;;;;;;;;5115644;27;20082;-68
2023/03/12 13:56:28;;;;;;;46.70;7.72;;;;;;;;;;5116224;27;20041;-68
2023/03/12 13:59:13;;;;;;;48.47;7.10;;;;;;;;;;5115754;27;20031;-69
2023/03/12 14:01:45;;;;;;;57.42;8.57;;;;;;;;;;5107228;27;20043;-68
2023/03/12 14:04:18;;;;;;;53.03;7.55;;;;;;;;;;5115585;27;20078;-67
2023/03/12 14:06:44;;;;;;;;;;;;;;;;;;5116106;27;20036;-68
2023/03/12 14:09:17;;;;;;;44.42;7.50;;;;;;;;;;5115569;27;19934;-68
2023/03/12 14:11:51;;;;;;;52.05;7.22;;;;;;;;;;5115626;27;20078;-68
2023/03/12 14:14:20;;;;;;;55.78;8.68;;;;;;;;;;5115795;27;20054;-69
2023/03/12 14:16:55;;;;;;;43.30;6.72;;;;;;;;;;5115873;27;20035;-69
2023/03/12 14:19:28;;;;;;;42.83;7.25;;;;;;;;;;5115784;27;20175;-69
2023/03/12 14:21:56;;;;;;;46.25;7.05;;;;;;;;;;5114182;27;20471;-69
2023/03/12 14:24:28;;;;;;;45.55;7.35;;;;;;;;;;5115051;27;20122;-68
2023/03/12 14:26:55;;;;;;;52.40;7.80;;;;;;;;;;5114948;27;20044;-69
2023/03/12 14:29:25;;;;;;;51.70;8.00;;;;;;;;;;5098073;27;20096;-69
2023/03/12 14:31:54;;;;;;;53.55;6.47;;;;;;;;;;5113642;27;20035;-69
2023/03/12 14:34:21;;;;;;;50.80;6.57;;;;;;;;;;5097943;27;20035;-69
2023/03/12 14:37:20;;;;;;;41.65;7.32;;;;;;;;;;5115731;27;20031;-69
2023/03/12 14:39:50;;;;;;;44.60;6.53;;;;;;;;;;5054659;27;20039;-69